sensor_id;sensor_type;location;lat;lon;timestamp;P1;durP1;ratioP1;P2;durP2;ratioP2
75073;SDS011;63652;51.526;5.080;2022-10-15T00:01:20;24.10;;;11.82;;
75073;SDS011;63652;51.526;5.080;2022-10-15T00:03:46;19.13;;;10.52;;
75073;SDS011;63652;51.526;5.080;2022-10-15T00:06:13;23.60;;;12.20;;
75073;SDS011;63652;51.526;5.080;2022-10-15T00:08:40;24.15;;;12.32;;
75073;SDS011;63652;51.526;5.080;2022-10-15T00:11:06;28.67;;;14.15;;
75073;SDS011;63652;51.526;5.080;2022-10-15T00:13:34;35.17;;;15.38;;
75073;SDS011;63652;51.526;5.080;2022-10-15T00:15:59;26.90;;;14.07;;
75073;SDS011;63652;51.526;5.080;2022-10-15T00:18:25;28.05;;;14.88;;
75073;SDS011;63652;51.526;5.080;2022-10-15T00:20:50;27.77;;;13.77;;
75073;SDS011;63652;51.526;5.080;2022-10-15T00:23:16;24.42;;;12.60;;
75073;SDS011;63652;51.526;5.080;2022-10-15T00:25:41;24.75;;;12.32;;
75073;SDS011;63652;51.526;5.080;2022-10-15T00:28:06;29.48;;;14.73;;
75073;SDS011;63652;51.526;5.080;2022-10-15T00:30:32;42.50;;;20.23;;
75073;SDS011;63652;51.526;5.080;2022-10-15T00:32:57;55.40;;;23.42;;
75073;SDS011;63652;51.526;5.080;2022-10-15T00:35:23;64.00;;;24.63;;
75073;SDS011;63652;51.526;5.080;2022-10-15T00:37:48;71.32;;;25.80;;
75073;SDS011;63652;51.526;5.080;2022-10-15T00:40:13;58.67;;;25.13;;
75073;SDS011;63652;51.526;5.080;2022-10-15T00:42:39;81.78;;;29.48;;
75073;SDS011;63652;51.526;5.080;2022-10-15T00:45:05;73.25;;;28.33;;
75073;SDS011;63652;51.526;5.080;2022-10-15T00:47:34;71.43;;;27.33;;
75073;SDS011;63652;51.526;5.080;2022-10-15T00:50:18;82.65;;;31.92;;
75073;SDS011;63652;51.526;5.080;2022-10-15T00:55:28;88.78;;;33.83;;
75073;SDS011;63652;51.526;5.080;2022-10-15T00:58:00;84.25;;;34.05;;
75073;SDS011;63652;51.526;5.080;2022-10-15T01:00:27;94.22;;;35.40;;
75073;SDS011;63652;51.526;5.080;2022-10-15T01:02:53;74.53;;;30.10;;
75073;SDS011;63652;51.526;5.080;2022-10-15T01:05:18;83.57;;;33.17;;
75073;SDS011;63652;51.526;5.080;2022-10-15T01:07:44;90.03;;;34.53;;
75073;SDS011;63652;51.526;5.080;2022-10-15T01:10:10;77.03;;;31.92;;
75073;SDS011;63652;51.526;5.080;2022-10-15T01:12:53;69.28;;;29.88;;
75073;SDS011;63652;51.526;5.080;2022-10-15T01:15:25;76.05;;;30.90;;
75073;SDS011;63652;51.526;5.080;2022-10-15T01:17:56;68.35;;;30.25;;
75073;SDS011;63652;51.526;5.080;2022-10-15T01:26:41;59.58;;;28.23;;
75073;SDS011;63652;51.526;5.080;2022-10-15T01:36:49;66.57;;;31.23;;
75073;SDS011;63652;51.526;5.080;2022-10-15T01:39:22;66.75;;;31.42;;
75073;SDS011;63652;51.526;5.080;2022-10-15T01:41:53;69.50;;;31.70;;
75073;SDS011;63652;51.526;5.080;2022-10-15T01:44:22;76.32;;;35.15;;
75073;SDS011;63652;51.526;5.080;2022-10-15T01:47:00;81.68;;;33.75;;
75073;SDS011;63652;51.526;5.080;2022-10-15T01:49:29;68.40;;;31.98;;
75073;SDS011;63652;51.526;5.080;2022-10-15T01:51:57;65.20;;;30.30;;
75073;SDS011;63652;51.526;5.080;2022-10-15T01:54:23;58.88;;;28.90;;
75073;SDS011;63652;51.526;5.080;2022-10-15T01:56:50;58.25;;;28.88;;
75073;SDS011;63652;51.526;5.080;2022-10-15T01:59:24;58.40;;;29.08;;
75073;SDS011;63652;51.526;5.080;2022-10-15T02:01:52;53.30;;;26.63;;
75073;SDS011;63652;51.526;5.080;2022-10-15T02:04:19;54.28;;;26.40;;
75073;SDS011;63652;51.526;5.080;2022-10-15T02:07:11;63.85;;;29.15;;
75073;SDS011;63652;51.526;5.080;2022-10-15T02:09:51;59.30;;;30.35;;
75073;SDS011;63652;51.526;5.080;2022-10-15T02:12:31;63.85;;;30.30;;
75073;SDS011;63652;51.526;5.080;2022-10-15T02:14:59;57.72;;;28.70;;
75073;SDS011;63652;51.526;5.080;2022-10-15T02:17:39;69.13;;;31.90;;
75073;SDS011;63652;51.526;5.080;2022-10-15T02:23:30;62.17;;;30.33;;
75073;SDS011;63652;51.526;5.080;2022-10-15T02:25:59;56.28;;;28.73;;
75073;SDS011;63652;51.526;5.080;2022-10-15T02:28:26;57.75;;;28.17;;
75073;SDS011;63652;51.526;5.080;2022-10-15T02:30:52;53.78;;;26.33;;
75073;SDS011;63652;51.526;5.080;2022-10-15T02:33:19;51.65;;;25.83;;
75073;SDS011;63652;51.526;5.080;2022-10-15T02:35:46;59.83;;;28.80;;
75073;SDS011;63652;51.526;5.080;2022-10-15T02:38:12;60.80;;;28.70;;
75073;SDS011;63652;51.526;5.080;2022-10-15T02:40:39;71.03;;;32.47;;
75073;SDS011;63652;51.526;5.080;2022-10-15T02:43:07;66.13;;;30.30;;
75073;SDS011;63652;51.526;5.080;2022-10-15T02:45:33;61.35;;;29.52;;
75073;SDS011;63652;51.526;5.080;2022-10-15T02:47:59;63.63;;;29.65;;
75073;SDS011;63652;51.526;5.080;2022-10-15T02:50:25;57.92;;;26.98;;
75073;SDS011;63652;51.526;5.080;2022-10-15T02:52:50;55.97;;;28.50;;
75073;SDS011;63652;51.526;5.080;2022-10-15T02:55:16;61.55;;;28.88;;
75073;SDS011;63652;51.526;5.080;2022-10-15T02:57:42;57.72;;;27.40;;
75073;SDS011;63652;51.526;5.080;2022-10-15T03:00:07;61.85;;;29.20;;
75073;SDS011;63652;51.526;5.080;2022-10-15T03:02:33;68.25;;;29.83;;
75073;SDS011;63652;51.526;5.080;2022-10-15T03:04:58;73.68;;;32.90;;
75073;SDS011;63652;51.526;5.080;2022-10-15T03:07:24;66.38;;;28.05;;
75073;SDS011;63652;51.526;5.080;2022-10-15T03:09:49;80.75;;;31.30;;
75073;SDS011;63652;51.526;5.080;2022-10-15T03:12:14;70.63;;;30.63;;
75073;SDS011;63652;51.526;5.080;2022-10-15T03:14:40;64.63;;;29.35;;
75073;SDS011;63652;51.526;5.080;2022-10-15T03:17:05;70.68;;;28.83;;
75073;SDS011;63652;51.526;5.080;2022-10-15T03:19:30;64.32;;;28.67;;
75073;SDS011;63652;51.526;5.080;2022-10-15T03:21:56;61.58;;;29.45;;
75073;SDS011;63652;51.526;5.080;2022-10-15T03:24:21;60.53;;;28.25;;
75073;SDS011;63652;51.526;5.080;2022-10-15T03:26:46;61.58;;;27.10;;
75073;SDS011;63652;51.526;5.080;2022-10-15T03:29:12;63.33;;;28.45;;
75073;SDS011;63652;51.526;5.080;2022-10-15T03:31:37;58.90;;;26.77;;
75073;SDS011;63652;51.526;5.080;2022-10-15T03:34:03;61.08;;;27.05;;
75073;SDS011;63652;51.526;5.080;2022-10-15T03:36:28;63.05;;;27.20;;
75073;SDS011;63652;51.526;5.080;2022-10-15T03:38:53;65.30;;;27.33;;
75073;SDS011;63652;51.526;5.080;2022-10-15T03:41:19;60.97;;;26.40;;
75073;SDS011;63652;51.526;5.080;2022-10-15T03:43:44;79.63;;;28.98;;
75073;SDS011;63652;51.526;5.080;2022-10-15T03:46:10;69.75;;;27.40;;
75073;SDS011;63652;51.526;5.080;2022-10-15T03:48:35;64.40;;;27.70;;
75073;SDS011;63652;51.526;5.080;2022-10-15T03:51:00;87.13;;;30.85;;
75073;SDS011;63652;51.526;5.080;2022-10-15T03:53:26;74.15;;;28.67;;
75073;SDS011;63652;51.526;5.080;2022-10-15T03:55:51;96.28;;;33.10;;
75073;SDS011;63652;51.526;5.080;2022-10-15T03:58:16;85.15;;;29.80;;
75073;SDS011;63652;51.526;5.080;2022-10-15T04:00:42;89.88;;;31.60;;
75073;SDS011;63652;51.526;5.080;2022-10-15T04:03:08;85.80;;;31.25;;
75073;SDS011;63652;51.526;5.080;2022-10-15T04:05:34;81.28;;;28.38;;
75073;SDS011;63652;51.526;5.080;2022-10-15T04:07:59;85.78;;;30.30;;
75073;SDS011;63652;51.526;5.080;2022-10-15T04:10:24;73.68;;;27.77;;
75073;SDS011;63652;51.526;5.080;2022-10-15T04:12:50;87.50;;;29.75;;
75073;SDS011;63652;51.526;5.080;2022-10-15T04:15:15;86.85;;;28.33;;
75073;SDS011;63652;51.526;5.080;2022-10-15T04:17:41;95.90;;;32.80;;
75073;SDS011;63652;51.526;5.080;2022-10-15T04:20:06;90.35;;;31.75;;
75073;SDS011;63652;51.526;5.080;2022-10-15T04:22:32;85.53;;;31.10;;
75073;SDS011;63652;51.526;5.080;2022-10-15T04:24:57;82.70;;;27.77;;
75073;SDS011;63652;51.526;5.080;2022-10-15T04:27:23;74.82;;;27.00;;
75073;SDS011;63652;51.526;5.080;2022-10-15T04:29:48;74.95;;;27.08;;
75073;SDS011;63652;51.526;5.080;2022-10-15T04:32:13;77.90;;;25.73;;
75073;SDS011;63652;51.526;5.080;2022-10-15T04:34:39;74.53;;;25.55;;
75073;SDS011;63652;51.526;5.080;2022-10-15T04:37:04;70.07;;;25.65;;
75073;SDS011;63652;51.526;5.080;2022-10-15T04:39:30;58.88;;;22.25;;
75073;SDS011;63652;51.526;5.080;2022-10-15T04:41:55;60.60;;;23.77;;
75073;SDS011;63652;51.526;5.080;2022-10-15T04:44:21;62.22;;;22.70;;
75073;SDS011;63652;51.526;5.080;2022-10-15T04:46:46;55.00;;;21.05;;
75073;SDS011;63652;51.526;5.080;2022-10-15T04:49:11;54.70;;;20.38;;
75073;SDS011;63652;51.526;5.080;2022-10-15T04:51:37;41.45;;;17.70;;
75073;SDS011;63652;51.526;5.080;2022-10-15T04:54:02;43.42;;;17.83;;
75073;SDS011;63652;51.526;5.080;2022-10-15T04:56:28;40.15;;;17.80;;
75073;SDS011;63652;51.526;5.080;2022-10-15T04:58:53;41.97;;;18.92;;
75073;SDS011;63652;51.526;5.080;2022-10-15T05:01:19;40.08;;;17.95;;
75073;SDS011;63652;51.526;5.080;2022-10-15T05:03:45;37.58;;;17.25;;
75073;SDS011;63652;51.526;5.080;2022-10-15T05:06:13;41.25;;;16.55;;
75073;SDS011;63652;51.526;5.080;2022-10-15T05:08:43;39.50;;;17.65;;
75073;SDS011;63652;51.526;5.080;2022-10-15T05:11:10;39.97;;;18.50;;
75073;SDS011;63652;51.526;5.080;2022-10-15T05:13:39;38.95;;;16.88;;
75073;SDS011;63652;51.526;5.080;2022-10-15T05:16:12;34.28;;;15.77;;
75073;SDS011;63652;51.526;5.080;2022-10-15T05:18:42;43.17;;;19.05;;
75073;SDS011;63652;51.526;5.080;2022-10-15T05:21:10;44.15;;;19.00;;
75073;SDS011;63652;51.526;5.080;2022-10-15T05:23:36;33.92;;;16.52;;
75073;SDS011;63652;51.526;5.080;2022-10-15T05:26:03;38.55;;;17.58;;
75073;SDS011;63652;51.526;5.080;2022-10-15T05:28:30;39.38;;;16.95;;
75073;SDS011;63652;51.526;5.080;2022-10-15T05:30:55;41.15;;;17.45;;
75073;SDS011;63652;51.526;5.080;2022-10-15T05:33:26;36.95;;;15.88;;
75073;SDS011;63652;51.526;5.080;2022-10-15T05:35:52;35.83;;;17.08;;
75073;SDS011;63652;51.526;5.080;2022-10-15T05:38:17;41.38;;;18.33;;
75073;SDS011;63652;51.526;5.080;2022-10-15T05:40:46;34.33;;;15.10;;
75073;SDS011;63652;51.526;5.080;2022-10-15T05:45:38;35.20;;;14.20;;
75073;SDS011;63652;51.526;5.080;2022-10-15T05:48:03;39.60;;;16.00;;
75073;SDS011;63652;51.526;5.080;2022-10-15T05:50:29;36.13;;;14.13;;
75073;SDS011;63652;51.526;5.080;2022-10-15T05:52:54;36.85;;;14.85;;
75073;SDS011;63652;51.526;5.080;2022-10-15T05:55:20;42.10;;;15.80;;
75073;SDS011;63652;51.526;5.080;2022-10-15T05:57:45;37.15;;;15.52;;
75073;SDS011;63652;51.526;5.080;2022-10-15T06:00:10;38.95;;;15.25;;
75073;SDS011;63652;51.526;5.080;2022-10-15T06:02:36;41.20;;;16.58;;
75073;SDS011;63652;51.526;5.080;2022-10-15T06:05:02;37.92;;;16.02;;
75073;SDS011;63652;51.526;5.080;2022-10-15T06:07:27;38.30;;;15.70;;
75073;SDS011;63652;51.526;5.080;2022-10-15T06:09:53;38.30;;;15.88;;
75073;SDS011;63652;51.526;5.080;2022-10-15T06:12:18;36.88;;;16.13;;
75073;SDS011;63652;51.526;5.080;2022-10-15T06:14:43;39.78;;;16.33;;
75073;SDS011;63652;51.526;5.080;2022-10-15T06:17:09;36.70;;;15.25;;
75073;SDS011;63652;51.526;5.080;2022-10-15T06:19:34;36.78;;;16.65;;
75073;SDS011;63652;51.526;5.080;2022-10-15T06:21:59;38.22;;;17.10;;
75073;SDS011;63652;51.526;5.080;2022-10-15T06:24:25;39.78;;;15.18;;
75073;SDS011;63652;51.526;5.080;2022-10-15T06:26:50;36.72;;;16.38;;
75073;SDS011;63652;51.526;5.080;2022-10-15T06:29:15;35.38;;;14.70;;
75073;SDS011;63652;51.526;5.080;2022-10-15T06:31:41;37.58;;;15.55;;
75073;SDS011;63652;51.526;5.080;2022-10-15T06:34:06;41.53;;;16.35;;
75073;SDS011;63652;51.526;5.080;2022-10-15T06:36:32;40.83;;;16.65;;
75073;SDS011;63652;51.526;5.080;2022-10-15T06:38:57;37.33;;;15.73;;
75073;SDS011;63652;51.526;5.080;2022-10-15T06:41:22;36.95;;;15.75;;
75073;SDS011;63652;51.526;5.080;2022-10-15T06:43:48;38.80;;;16.75;;
75073;SDS011;63652;51.526;5.080;2022-10-15T06:46:14;35.22;;;15.32;;
75073;SDS011;63652;51.526;5.080;2022-10-15T06:48:39;41.28;;;17.60;;
75073;SDS011;63652;51.526;5.080;2022-10-15T06:51:04;39.00;;;15.85;;
75073;SDS011;63652;51.526;5.080;2022-10-15T06:53:30;38.42;;;15.25;;
75073;SDS011;63652;51.526;5.080;2022-10-15T06:55:56;37.05;;;16.40;;
75073;SDS011;63652;51.526;5.080;2022-10-15T06:58:22;39.25;;;16.42;;
75073;SDS011;63652;51.526;5.080;2022-10-15T07:00:48;41.50;;;16.15;;
75073;SDS011;63652;51.526;5.080;2022-10-15T07:03:13;34.75;;;16.45;;
75073;SDS011;63652;51.526;5.080;2022-10-15T07:05:39;41.13;;;16.63;;
75073;SDS011;63652;51.526;5.080;2022-10-15T07:08:04;39.85;;;15.48;;
75073;SDS011;63652;51.526;5.080;2022-10-15T07:10:29;40.10;;;16.45;;
75073;SDS011;63652;51.526;5.080;2022-10-15T07:12:55;43.05;;;16.92;;
75073;SDS011;63652;51.526;5.080;2022-10-15T07:15:20;36.85;;;15.82;;
75073;SDS011;63652;51.526;5.080;2022-10-15T07:17:46;39.15;;;15.65;;
75073;SDS011;63652;51.526;5.080;2022-10-15T07:20:15;35.70;;;14.65;;
75073;SDS011;63652;51.526;5.080;2022-10-15T07:22:41;34.65;;;14.45;;
75073;SDS011;63652;51.526;5.080;2022-10-15T07:25:07;30.58;;;13.32;;
75073;SDS011;63652;51.526;5.080;2022-10-15T07:27:34;33.70;;;13.32;;
75073;SDS011;63652;51.526;5.080;2022-10-15T07:30:01;34.65;;;14.93;;
75073;SDS011;63652;51.526;5.080;2022-10-15T07:32:26;38.78;;;15.50;;
75073;SDS011;63652;51.526;5.080;2022-10-15T07:34:52;33.88;;;13.65;;
75073;SDS011;63652;51.526;5.080;2022-10-15T07:37:17;30.35;;;13.55;;
75073;SDS011;63652;51.526;5.080;2022-10-15T07:39:43;31.15;;;13.95;;
75073;SDS011;63652;51.526;5.080;2022-10-15T07:42:08;32.72;;;13.07;;
75073;SDS011;63652;51.526;5.080;2022-10-15T07:44:33;31.17;;;13.50;;
75073;SDS011;63652;51.526;5.080;2022-10-15T07:46:59;29.50;;;13.00;;
75073;SDS011;63652;51.526;5.080;2022-10-15T07:49:24;28.75;;;12.90;;
75073;SDS011;63652;51.526;5.080;2022-10-15T07:51:50;34.17;;;13.63;;
75073;SDS011;63652;51.526;5.080;2022-10-15T07:54:15;24.35;;;11.32;;
75073;SDS011;63652;51.526;5.080;2022-10-15T07:56:40;24.80;;;11.48;;
75073;SDS011;63652;51.526;5.080;2022-10-15T07:59:06;22.90;;;9.85;;
75073;SDS011;63652;51.526;5.080;2022-10-15T08:01:32;25.60;;;11.13;;
75073;SDS011;63652;51.526;5.080;2022-10-15T08:03:57;28.58;;;12.88;;
75073;SDS011;63652;51.526;5.080;2022-10-15T08:06:23;26.80;;;12.50;;
75073;SDS011;63652;51.526;5.080;2022-10-15T08:08:48;34.00;;;12.32;;
75073;SDS011;63652;51.526;5.080;2022-10-15T08:11:14;29.38;;;12.52;;
75073;SDS011;63652;51.526;5.080;2022-10-15T08:13:40;27.33;;;11.75;;
75073;SDS011;63652;51.526;5.080;2022-10-15T08:16:09;27.80;;;10.90;;
75073;SDS011;63652;51.526;5.080;2022-10-15T08:18:36;24.50;;;10.90;;
75073;SDS011;63652;51.526;5.080;2022-10-15T08:21:02;20.63;;;9.52;;
75073;SDS011;63652;51.526;5.080;2022-10-15T08:23:28;22.50;;;10.38;;
75073;SDS011;63652;51.526;5.080;2022-10-15T08:25:56;22.65;;;11.05;;
75073;SDS011;63652;51.526;5.080;2022-10-15T08:28:22;25.65;;;10.70;;
75073;SDS011;63652;51.526;5.080;2022-10-15T08:30:48;21.95;;;10.13;;
75073;SDS011;63652;51.526;5.080;2022-10-15T08:33:13;24.48;;;10.30;;
75073;SDS011;63652;51.526;5.080;2022-10-15T08:35:42;22.30;;;9.82;;
75073;SDS011;63652;51.526;5.080;2022-10-15T08:38:11;21.10;;;9.25;;
75073;SDS011;63652;51.526;5.080;2022-10-15T08:40:36;20.67;;;9.48;;
75073;SDS011;63652;51.526;5.080;2022-10-15T08:43:02;19.00;;;9.23;;
75073;SDS011;63652;51.526;5.080;2022-10-15T08:45:29;21.45;;;9.40;;
75073;SDS011;63652;51.526;5.080;2022-10-15T08:48:07;20.20;;;10.50;;
75073;SDS011;63652;51.526;5.080;2022-10-15T08:53:20;20.63;;;8.55;;
75073;SDS011;63652;51.526;5.080;2022-10-15T08:55:50;18.77;;;8.88;;
75073;SDS011;63652;51.526;5.080;2022-10-15T08:58:27;18.15;;;8.88;;
75073;SDS011;63652;51.526;5.080;2022-10-15T09:01:13;19.40;;;7.93;;
75073;SDS011;63652;51.526;5.080;2022-10-15T09:04:00;18.25;;;7.75;;
75073;SDS011;63652;51.526;5.080;2022-10-15T09:06:38;14.63;;;7.95;;
75073;SDS011;63652;51.526;5.080;2022-10-15T09:14:27;15.73;;;6.88;;
75073;SDS011;63652;51.526;5.080;2022-10-15T09:16:55;14.88;;;7.07;;
75073;SDS011;63652;51.526;5.080;2022-10-15T09:19:21;16.27;;;7.43;;
75073;SDS011;63652;51.526;5.080;2022-10-15T09:21:49;16.40;;;7.03;;
75073;SDS011;63652;51.526;5.080;2022-10-15T09:24:22;14.60;;;7.15;;
75073;SDS011;63652;51.526;5.080;2022-10-15T09:26:54;17.50;;;7.15;;
75073;SDS011;63652;51.526;5.080;2022-10-15T09:34:25;18.23;;;8.10;;
75073;SDS011;63652;51.526;5.080;2022-10-15T09:36:55;14.38;;;7.03;;
75073;SDS011;63652;51.526;5.080;2022-10-15T09:45:03;18.58;;;7.32;;
75073;SDS011;63652;51.526;5.080;2022-10-15T09:47:33;17.38;;;7.35;;
75073;SDS011;63652;51.526;5.080;2022-10-15T09:50:00;14.07;;;6.15;;
75073;SDS011;63652;51.526;5.080;2022-10-15T09:52:38;11.93;;;6.93;;
75073;SDS011;63652;51.526;5.080;2022-10-15T09:58:05;12.20;;;5.97;;
75073;SDS011;63652;51.526;5.080;2022-10-15T10:03:28;15.18;;;7.45;;
75073;SDS011;63652;51.526;5.080;2022-10-15T10:06:13;15.52;;;7.03;;
75073;SDS011;63652;51.526;5.080;2022-10-15T10:08:39;12.30;;;5.57;;
75073;SDS011;63652;51.526;5.080;2022-10-15T10:11:11;14.23;;;6.85;;
75073;SDS011;63652;51.526;5.080;2022-10-15T10:13:44;14.00;;;6.95;;
75073;SDS011;63652;51.526;5.080;2022-10-15T10:16:14;11.80;;;5.95;;
75073;SDS011;63652;51.526;5.080;2022-10-15T10:18:41;14.85;;;6.72;;
75073;SDS011;63652;51.526;5.080;2022-10-15T10:21:24;11.45;;;6.15;;
75073;SDS011;63652;51.526;5.080;2022-10-15T10:23:53;11.32;;;5.50;;
75073;SDS011;63652;51.526;5.080;2022-10-15T10:26:18;9.88;;;4.90;;
75073;SDS011;63652;51.526;5.080;2022-10-15T10:28:54;10.02;;;5.40;;
75073;SDS011;63652;51.526;5.080;2022-10-15T10:31:30;9.85;;;5.07;;
75073;SDS011;63652;51.526;5.080;2022-10-15T10:33:59;9.30;;;4.97;;
75073;SDS011;63652;51.526;5.080;2022-10-15T10:47:07;7.95;;;3.88;;
75073;SDS011;63652;51.526;5.080;2022-10-15T10:49:44;8.50;;;4.03;;
75073;SDS011;63652;51.526;5.080;2022-10-15T10:57:33;6.78;;;3.45;;
75073;SDS011;63652;51.526;5.080;2022-10-15T11:00:04;5.57;;;3.35;;
75073;SDS011;63652;51.526;5.080;2022-10-15T11:02:32;6.30;;;3.22;;
75073;SDS011;63652;51.526;5.080;2022-10-15T11:04:59;7.70;;;4.03;;
75073;SDS011;63652;51.526;5.080;2022-10-15T11:12:33;7.55;;;3.38;;
75073;SDS011;63652;51.526;5.080;2022-10-15T11:18:26;5.07;;;2.92;;
75073;SDS011;63652;51.526;5.080;2022-10-15T11:21:20;6.05;;;3.40;;
75073;SDS011;63652;51.526;5.080;2022-10-15T11:31:57;6.32;;;3.97;;
75073;SDS011;63652;51.526;5.080;2022-10-15T11:50:33;5.03;;;3.42;;
75073;SDS011;63652;51.526;5.080;2022-10-15T11:56:04;4.68;;;2.95;;
75073;SDS011;63652;51.526;5.080;2022-10-15T11:58:46;4.93;;;3.20;;
75073;SDS011;63652;51.526;5.080;2022-10-15T12:01:22;4.53;;;2.53;;
75073;SDS011;63652;51.526;5.080;2022-10-15T12:03:54;4.45;;;3.33;;
75073;SDS011;63652;51.526;5.080;2022-10-15T12:06:29;5.10;;;3.50;;
75073;SDS011;63652;51.526;5.080;2022-10-15T12:09:00;6.43;;;3.90;;
75073;SDS011;63652;51.526;5.080;2022-10-15T12:14:01;7.70;;;4.55;;
75073;SDS011;63652;51.526;5.080;2022-10-15T12:16:37;7.00;;;4.40;;
75073;SDS011;63652;51.526;5.080;2022-10-15T12:19:24;6.32;;;4.65;;
75073;SDS011;63652;51.526;5.080;2022-10-15T12:32:50;8.88;;;5.72;;
75073;SDS011;63652;51.526;5.080;2022-10-15T12:37:40;7.25;;;5.00;;
75073;SDS011;63652;51.526;5.080;2022-10-15T12:42:46;6.90;;;5.10;;
75073;SDS011;63652;51.526;5.080;2022-10-15T12:45:25;7.15;;;5.05;;
75073;SDS011;63652;51.526;5.080;2022-10-15T12:50:32;7.50;;;5.30;;
75073;SDS011;63652;51.526;5.080;2022-10-15T12:53:07;8.13;;;6.07;;
75073;SDS011;63652;51.526;5.080;2022-10-15T12:58:34;8.13;;;5.40;;
75073;SDS011;63652;51.526;5.080;2022-10-15T13:13:49;7.15;;;5.63;;
75073;SDS011;63652;51.526;5.080;2022-10-15T13:16:17;7.05;;;4.93;;
75073;SDS011;63652;51.526;5.080;2022-10-15T13:43:52;1.25;;;0.40;;
75073;SDS011;63652;51.526;5.080;2022-10-15T13:46:22;0.88;;;0.30;;
75073;SDS011;63652;51.526;5.080;2022-10-15T13:48:55;0.98;;;0.30;;
75073;SDS011;63652;51.526;5.080;2022-10-15T13:51:42;1.77;;;0.30;;
75073;SDS011;63652;51.526;5.080;2022-10-15T13:54:09;1.55;;;0.40;;
75073;SDS011;63652;51.526;5.080;2022-10-15T13:56:41;1.48;;;0.22;;
75073;SDS011;63652;51.526;5.080;2022-10-15T13:59:13;1.58;;;0.30;;
75073;SDS011;63652;51.526;5.080;2022-10-15T14:01:43;1.08;;;0.32;;
75073;SDS011;63652;51.526;5.080;2022-10-15T14:04:18;0.93;;;0.30;;
75073;SDS011;63652;51.526;5.080;2022-10-15T14:06:59;1.27;;;0.43;;
75073;SDS011;63652;51.526;5.080;2022-10-15T14:09:30;1.17;;;0.40;;
75073;SDS011;63652;51.526;5.080;2022-10-15T14:11:58;1.65;;;0.30;;
75073;SDS011;63652;51.526;5.080;2022-10-15T14:14:36;2.03;;;0.45;;
75073;SDS011;63652;51.526;5.080;2022-10-15T14:17:06;1.52;;;0.50;;
75073;SDS011;63652;51.526;5.080;2022-10-15T14:19:34;1.20;;;0.38;;
75073;SDS011;63652;51.526;5.080;2022-10-15T14:22:01;1.70;;;0.43;;
75073;SDS011;63652;51.526;5.080;2022-10-15T14:29:43;1.98;;;0.77;;
75073;SDS011;63652;51.526;5.080;2022-10-15T14:34:47;1.10;;;0.38;;
75073;SDS011;63652;51.526;5.080;2022-10-15T14:42:36;2.15;;;0.63;;
75073;SDS011;63652;51.526;5.080;2022-10-15T14:47:40;2.45;;;0.60;;
75073;SDS011;63652;51.526;5.080;2022-10-15T14:50:09;1.70;;;0.50;;
75073;SDS011;63652;51.526;5.080;2022-10-15T14:52:35;1.88;;;0.43;;
75073;SDS011;63652;51.526;5.080;2022-10-15T14:55:02;2.90;;;0.70;;
75073;SDS011;63652;51.526;5.080;2022-10-15T14:57:31;1.38;;;0.30;;
75073;SDS011;63652;51.526;5.080;2022-10-15T15:02:25;1.60;;;0.40;;
75073;SDS011;63652;51.526;5.080;2022-10-15T15:05:42;2.22;;;0.40;;
75073;SDS011;63652;51.526;5.080;2022-10-15T15:07:37;1.08;;;0.40;;
75073;SDS011;63652;51.526;5.080;2022-10-15T15:10:03;1.90;;;0.45;;
75073;SDS011;63652;51.526;5.080;2022-10-15T15:12:30;1.95;;;0.50;;
75073;SDS011;63652;51.526;5.080;2022-10-15T15:14:55;2.47;;;0.40;;
75073;SDS011;63652;51.526;5.080;2022-10-15T15:17:25;4.07;;;0.60;;
75073;SDS011;63652;51.526;5.080;2022-10-15T15:19:52;3.20;;;0.50;;
75073;SDS011;63652;51.526;5.080;2022-10-15T15:22:29;1.92;;;0.50;;
75073;SDS011;63652;51.526;5.080;2022-10-15T15:24:56;3.22;;;0.80;;
75073;SDS011;63652;51.526;5.080;2022-10-15T15:27:29;1.90;;;0.60;;
75073;SDS011;63652;51.526;5.080;2022-10-15T15:29:56;4.65;;;1.30;;
75073;SDS011;63652;51.526;5.080;2022-10-15T15:32:22;1.75;;;0.90;;
75073;SDS011;63652;51.526;5.080;2022-10-15T15:34:48;3.58;;;0.95;;
75073;SDS011;63652;51.526;5.080;2022-10-15T15:37:18;5.28;;;1.30;;
75073;SDS011;63652;51.526;5.080;2022-10-15T15:39:45;2.15;;;0.80;;
75073;SDS011;63652;51.526;5.080;2022-10-15T15:42:12;1.95;;;1.10;;
75073;SDS011;63652;51.526;5.080;2022-10-15T15:44:41;4.30;;;1.50;;
75073;SDS011;63652;51.526;5.080;2022-10-15T15:47:07;5.70;;;1.52;;
75073;SDS011;63652;51.526;5.080;2022-10-15T15:49:33;4.63;;;1.30;;
75073;SDS011;63652;51.526;5.080;2022-10-15T15:51:58;3.10;;;1.05;;
75073;SDS011;63652;51.526;5.080;2022-10-15T15:54:24;4.70;;;0.95;;
75073;SDS011;63652;51.526;5.080;2022-10-15T15:56:49;4.45;;;1.30;;
75073;SDS011;63652;51.526;5.080;2022-10-15T15:59:14;2.55;;;0.85;;
75073;SDS011;63652;51.526;5.080;2022-10-15T16:01:41;2.47;;;0.70;;
75073;SDS011;63652;51.526;5.080;2022-10-15T16:04:06;3.60;;;0.75;;
75073;SDS011;63652;51.526;5.080;2022-10-15T16:06:32;2.80;;;1.08;;
75073;SDS011;63652;51.526;5.080;2022-10-15T16:08:57;3.10;;;1.20;;
75073;SDS011;63652;51.526;5.080;2022-10-15T16:11:23;5.10;;;1.20;;
75073;SDS011;63652;51.526;5.080;2022-10-15T16:13:48;5.40;;;1.25;;
75073;SDS011;63652;51.526;5.080;2022-10-15T16:16:14;3.20;;;1.13;;
75073;SDS011;63652;51.526;5.080;2022-10-15T16:18:39;3.30;;;1.15;;
75073;SDS011;63652;51.526;5.080;2022-10-15T16:21:05;4.15;;;1.13;;
75073;SDS011;63652;51.526;5.080;2022-10-15T16:23:30;5.68;;;2.42;;
75073;SDS011;63652;51.526;5.080;2022-10-15T16:25:56;5.00;;;1.40;;
75073;SDS011;63652;51.526;5.080;2022-10-15T16:28:21;6.07;;;1.52;;
75073;SDS011;63652;51.526;5.080;2022-10-15T16:30:47;4.95;;;1.63;;
75073;SDS011;63652;51.526;5.080;2022-10-15T16:33:13;3.13;;;1.40;;
75073;SDS011;63652;51.526;5.080;2022-10-15T16:35:38;2.90;;;1.30;;
75073;SDS011;63652;51.526;5.080;2022-10-15T16:38:04;3.63;;;1.63;;
75073;SDS011;63652;51.526;5.080;2022-10-15T16:40:30;4.70;;;1.95;;
75073;SDS011;63652;51.526;5.080;2022-10-15T16:42:55;4.93;;;1.23;;
75073;SDS011;63652;51.526;5.080;2022-10-15T16:45:20;3.40;;;1.52;;
75073;SDS011;63652;51.526;5.080;2022-10-15T16:47:46;4.18;;;1.30;;
75073;SDS011;63652;51.526;5.080;2022-10-15T16:50:11;3.63;;;1.30;;
75073;SDS011;63652;51.526;5.080;2022-10-15T16:52:36;2.25;;;1.00;;
75073;SDS011;63652;51.526;5.080;2022-10-15T16:55:02;4.53;;;0.90;;
75073;SDS011;63652;51.526;5.080;2022-10-15T16:57:28;3.22;;;0.90;;
75073;SDS011;63652;51.526;5.080;2022-10-15T16:59:53;3.88;;;1.10;;
75073;SDS011;63652;51.526;5.080;2022-10-15T17:02:19;10.05;;;3.22;;
75073;SDS011;63652;51.526;5.080;2022-10-15T17:04:45;7.00;;;3.38;;
75073;SDS011;63652;51.526;5.080;2022-10-15T17:07:10;11.38;;;5.50;;
75073;SDS011;63652;51.526;5.080;2022-10-15T17:09:36;6.57;;;3.33;;
75073;SDS011;63652;51.526;5.080;2022-10-15T17:12:01;5.90;;;2.38;;
75073;SDS011;63652;51.526;5.080;2022-10-15T17:14:27;8.70;;;2.72;;
75073;SDS011;63652;51.526;5.080;2022-10-15T17:16:52;5.05;;;1.60;;
75073;SDS011;63652;51.526;5.080;2022-10-15T17:19:19;5.97;;;1.85;;
75073;SDS011;63652;51.526;5.080;2022-10-15T17:21:47;4.18;;;1.60;;
75073;SDS011;63652;51.526;5.080;2022-10-15T17:24:13;3.08;;;1.40;;
75073;SDS011;63652;51.526;5.080;2022-10-15T17:26:41;4.72;;;1.70;;
75073;SDS011;63652;51.526;5.080;2022-10-15T17:29:08;3.03;;;1.20;;
75073;SDS011;63652;51.526;5.080;2022-10-15T17:31:35;2.97;;;1.15;;
75073;SDS011;63652;51.526;5.080;2022-10-15T17:34:02;4.32;;;1.67;;